Time;durP1;ratioP1;P1;durP2;ratioP2;P2;SDS_P1;SDS_P2;PMS_P1;PMS_P2;Temp;Humidity;BMP_temperature;BMP_pressure;BME280_temperature;BME280_humidity;BME280_pressure;Samples;Min_cycle;Max_cycle;Signal;HPM_P1;HPM_P2
2023/09/05 00:01:10;;;;;;;1.92;1.40;;;20.70;73.00;;;;;;4960694;28;20041;-61
2023/09/05 00:03:36;;;;;;;1.70;1.33;;;20.70;73.00;;;;;;4964149;28;20034;-61
2023/09/05 00:06:10;;;;;;;2.47;1.35;;;20.80;73.20;;;;;;4963090;28;20050;-61
2023/09/05 00:08:38;;;;;;;2.47;1.80;;;20.70;73.10;;;;;;4959925;28;20097;-59
2023/09/05 00:11:04;;;;;;;1.90;1.10;;;20.70;73.00;;;;;;4963664;28;20089;-61
2023/09/05 00:13:29;;;;;;;2.78;1.40;;;20.70;73.10;;;;;;4964875;28;20353;-59
2023/09/05 00:15:56;;;;;;;1.42;1.10;;;20.70;73.70;;;;;;4960871;28;20113;-59
2023/09/05 00:18:22;;;;;;;1.70;1.60;;;20.70;73.00;;;;;;4961721;28;20066;-58
2023/09/05 00:20:51;;;;;;;1.75;1.60;;;20.70;73.10;;;;;;4960637;28;20058;-59
2023/09/05 00:23:17;;;;;;;1.52;1.40;;;20.70;73.10;;;;;;4962888;28;20030;-60
2023/09/05 00:25:42;;;;;;;1.73;1.35;;;20.70;73.10;;;;;;4963231;28;20043;-57
2023/09/05 00:28:08;;;;;;;1.55;1.20;;;20.70;73.10;;;;;;4959799;28;20035;-58
2023/09/05 00:30:34;;;;;;;1.55;1.40;;;20.70;73.10;;;;;;4962545;28;20063;-59
2023/09/05 00:33:00;;;;;;;1.60;1.30;;;20.70;73.00;;;;;;4963090;28;20023;-59
2023/09/05 00:35:25;;;;;;;1.77;1.35;;;20.70;73.70;;;;;;4964103;28;20034;-59
2023/09/05 00:37:53;;;;;;;1.92;1.33;;;20.70;73.10;;;;;;4965500;28;20030;-58
2023/09/05 00:40:19;;;;;;;1.92;1.40;;;20.70;73.10;;;;;;4964265;28;20035;-58
2023/09/05 00:42:45;;;;;;;2.00;1.60;;;20.70;73.20;;;;;;4963106;28;20030;-59
2023/09/05 00:45:11;;;;;;;1.98;1.65;;;20.70;73.20;;;;;;4961157;28;20031;-60
2023/09/05 00:47:37;;;;;;;1.58;1.48;;;20.70;73.20;;;;;;4962683;28;20388;-59
2023/09/05 00:50:05;;;;;;;1.75;1.30;;;20.70;73.20;;;;;;4958916;28;20116;-60
2023/09/05 00:52:31;;;;;;;1.85;1.25;;;20.70;73.20;;;;;;4959071;28;20073;-60
2023/09/05 00:54:57;;;;;;;1.33;1.20;;;20.70;73.10;;;;;;4961659;28;20034;-58
2023/09/05 00:57:24;;;;;;;1.30;1.20;;;20.70;73.00;;;;;;4960941;28;20027;-57
2023/09/05 00:59:50;;;;;;;1.65;1.55;;;20.70;73.20;;;;;;4956814;28;20026;-58
2023/09/05 01:02:16;;;;;;;1.50;1.17;;;20.70;73.10;;;;;;4959208;28;20085;-59
2023/09/05 01:04:43;;;;;;;4.00;1.88;;;20.70;73.20;;;;;;4964435;28;20031;-58
2023/09/05 01:07:27;;;;;;;1.48;1.25;;;20.70;73.10;;;;;;4963454;28;20027;-60
2023/09/05 01:10:03;;;;;;;1.83;1.33;;;20.70;73.20;;;;;;4964254;28;20042;-60
2023/09/05 01:12:29;;;;;;;1.70;1.60;;;20.70;73.20;;;;;;4962353;28;20043;-60
2023/09/05 01:14:54;;;;;;;2.20;1.40;;;20.70;73.20;;;;;;4961443;28;20049;-64
2023/09/05 01:17:20;;;;;;;2.35;1.40;;;20.70;73.20;;;;;;4959650;28;20039;-58
2023/09/05 01:19:46;;;;;;;1.73;1.35;;;20.70;73.20;;;;;;4962634;28;20035;-60
2023/09/05 01:22:48;;;;;;;2.10;1.35;;;20.70;73.20;;;;;;4963176;28;20030;-58
2023/09/05 01:25:14;;;;;;;1.75;1.65;;;20.70;73.20;;;;;;4937878;28;20054;-57
2023/09/05 01:27:40;;;;;;;1.77;1.42;;;20.70;73.20;;;;;;4965056;28;20053;-60
2023/09/05 01:30:09;;;;;;;3.45;1.63;;;20.70;73.10;;;;;;4964762;28;20030;-60
2023/09/05 01:32:34;;;;;;;1.67;1.20;;;20.70;73.00;;;;;;4966579;28;20062;-59
2023/09/05 01:35:00;;;;;;;1.73;1.52;;;20.70;73.10;;;;;;4969703;28;20079;-58
2023/09/05 01:37:25;;;;;;;1.50;1.30;;;20.70;73.10;;;;;;4966848;28;20551;-59
2023/09/05 01:39:51;;;;;;;1.73;1.40;;;20.70;73.10;;;;;;4968565;28;20114;-60
2023/09/05 01:42:17;;;;;;;2.92;1.30;;;20.70;73.00;;;;;;4964355;28;20030;-57
2023/09/05 01:44:42;;;;;;;1.30;1.20;;;20.70;73.00;;;;;;4966248;28;20027;-58
2023/09/05 01:47:08;;;;;;;1.30;1.20;;;20.70;73.00;;;;;;4962714;28;20026;-61
2023/09/05 01:49:33;;;;;;;2.00;1.52;;;20.70;73.00;;;;;;4962545;28;20031;-58
2023/09/05 01:51:59;;;;;;;1.55;1.45;;;20.70;73.10;;;;;;4965446;28;20562;-59
2023/09/05 01:54:24;;;;;;;1.20;1.10;;;20.70;73.10;;;;;;4964712;28;20576;-64
2023/09/05 01:56:50;;;;;;;1.35;1.20;;;20.70;73.10;;;;;;4964305;28;20416;-61
2023/09/05 01:59:19;;;;;;;1.35;1.25;;;20.70;73.00;;;;;;4965461;28;20030;-60
2023/09/05 02:01:45;;;;;;;1.25;1.15;;;20.70;73.10;;;;;;4947753;28;20097;-60
2023/09/05 02:04:10;;;;;;;2.53;2.30;;;20.70;73.10;;;;;;4966791;28;20034;-60
2023/09/05 02:06:36;;;;;;;2.35;1.20;;;20.70;73.10;;;;;;4968261;28;20069;-57
2023/09/05 02:09:01;;;;;;;3.10;1.40;;;20.70;73.10;;;;;;4964647;28;20030;-59
2023/09/05 02:11:27;;;;;;;1.38;1.20;;;20.70;73.10;;;;;;4961515;28;20043;-58
2023/09/05 02:13:52;;;;;;;2.08;1.52;;;20.70;73.00;;;;;;4962164;28;20031;-60
2023/09/05 02:16:23;;;;;;;1.63;1.15;;;20.70;73.00;;;;;;4945877;28;20057;-60
2023/09/05 02:18:49;;;;;;;1.75;1.55;;;20.70;73.00;;;;;;4966001;28;20085;-59
2023/09/05 02:21:15;;;;;;;2.20;1.58;;;20.70;73.00;;;;;;4962601;28;20125;-58
2023/09/05 02:23:41;;;;;;;1.55;1.27;;;20.70;73.00;;;;;;4964288;28;20038;-60
2023/09/05 02:26:08;;;;;;;1.90;1.23;;;20.70;73.00;;;;;;4962128;28;20038;-61
2023/09/05 02:28:33;;;;;;;1.42;1.20;;;20.70;73.00;;;;;;4966608;28;20035;-57
2023/09/05 02:31:06;;;;;;;1.27;1.17;;;20.70;73.00;;;;;;4969597;28;20039;-58
2023/09/05 02:33:36;;;;;;;1.42;1.27;;;20.70;73.00;;;;;;4968256;28;20023;-59
2023/09/05 02:36:17;;;;;;;1.50;1.40;;;20.70;73.00;;;;;;4962574;28;20038;-58
2023/09/05 02:38:43;;;;;;;1.35;1.13;;;20.70;73.00;;;;;;4962304;28;20130;-61
2023/09/05 02:41:16;;;;;;;1.27;1.08;;;20.70;73.00;;;;;;4963438;28;20031;-61
2023/09/05 02:43:42;;;;;;;1.20;1.10;;;20.70;73.00;;;;;;4964860;28;20046;-61
2023/09/05 02:46:08;;;;;;;1.52;1.20;;;20.70;73.00;;;;;;4964617;28;20245;-57
2023/09/05 02:48:43;;;;;;;2.42;1.50;;;20.70;72.90;;;;;;4958696;28;20034;-57
2023/09/05 02:51:10;;;;;;;1.35;1.25;;;20.70;73.00;;;;;;4961773;28;20030;-57
2023/09/05 02:53:37;;;;;;;1.65;1.33;;;20.70;73.00;;;;;;4964253;28;20054;-58
2023/09/05 02:56:03;;;;;;;1.58;1.25;;;20.70;73.00;;;;;;4961989;28;20058;-58
2023/09/05 02:58:31;;;;;;;1.95;1.45;;;20.70;72.90;;;;;;4967584;28;20058;-58
2023/09/05 03:01:10;;;;;;;3.05;1.40;;;20.70;72.90;;;;;;4969501;28;20039;-58
2023/09/05 03:03:35;;;;;;;1.50;1.35;;;20.70;73.00;;;;;;4965978;28;20067;-60
2023/09/05 03:06:12;;;;;;;1.55;1.17;;;20.70;73.00;;;;;;4963941;28;20113;-60
2023/09/05 03:08:38;;;;;;;1.20;1.02;;;20.70;73.00;;;;;;4962653;28;20412;-60
2023/09/05 03:11:04;;;;;;;2.28;1.50;;;20.70;72.90;;;;;;4945961;28;20493;-59
2023/09/05 03:13:29;;;;;;;1.73;1.40;;;20.70;73.00;;;;;;4963068;28;20031;-60
2023/09/05 03:15:55;;;;;;;1.27;1.17;;;20.70;73.00;;;;;;4939134;28;20086;-59
2023/09/05 03:18:20;;;;;;;3.05;1.10;;;20.70;73.00;;;;;;4930990;28;20031;-58
2023/09/05 03:20:46;;;;;;;1.58;1.40;;;20.70;73.00;;;;;;4962981;28;20172;-60
2023/09/05 03:23:13;;;;;;;1.38;1.27;;;20.70;73.00;;;;;;4964138;28;20876;-58
2023/09/05 03:25:39;;;;;;;1.70;1.50;;;20.70;73.00;;;;;;4963939;28;20043;-59
2023/09/05 03:28:05;;;;;;;1.55;1.20;;;20.70;73.00;;;;;;4962752;28;20039;-60
2023/09/05 03:30:31;;;;;;;1.50;1.40;;;20.70;73.10;;;;;;4963596;28;20744;-60
2023/09/05 03:32:56;;;;;;;2.50;1.45;;;20.70;73.10;;;;;;4963264;28;20030;-60
2023/09/05 03:35:22;;;;;;;1.27;1.17;;;20.70;73.00;;;;;;4962789;28;20027;-60
2023/09/05 03:37:47;;;;;;;1.40;1.08;;;20.70;73.00;;;;;;4960448;28;20027;-57
2023/09/05 03:40:13;;;;;;;2.50;1.33;;;20.70;73.00;;;;;;4961475;28;20038;-57
2023/09/05 03:42:40;;;;;;;2.15;1.23;;;20.70;73.00;;;;;;4960041;28;20035;-61
2023/09/05 03:45:06;;;;;;;1.50;1.27;;;20.70;72.90;;;;;;4962826;28;20026;-61
2023/09/05 03:47:32;;;;;;;1.40;1.13;;;20.70;72.90;;;;;;4958021;28;20086;-59
2023/09/05 03:49:58;;;;;;;1.65;1.17;;;20.70;72.90;;;;;;4964545;28;20019;-60
2023/09/05 03:52:23;;;;;;;1.40;1.30;;;20.70;72.90;;;;;;4962504;28;20148;-60
2023/09/05 03:54:49;;;;;;;1.40;1.30;;;20.80;73.00;;;;;;4962457;28;20499;-61
2023/09/05 03:57:16;;;;;;;1.45;1.17;;;20.70;72.80;;;;;;4963517;28;20033;-61
2023/09/05 03:59:41;;;;;;;1.30;1.20;;;20.70;72.90;;;;;;4963305;28;20035;-60
2023/09/05 04:02:07;;;;;;;2.78;1.25;;;20.70;72.90;;;;;;4961790;28;20029;-61
2023/09/05 04:04:32;;;;;;;1.35;1.25;;;20.70;72.80;;;;;;4962300;28;20049;-58
2023/09/05 04:06:58;;;;;;;1.80;1.30;;;20.70;72.80;;;;;;4958781;28;20089;-57
2023/09/05 04:09:23;;;;;;;2.38;1.90;;;20.70;72.80;;;;;;4961489;28;20039;-60
2023/09/05 04:11:49;;;;;;;1.00;0.90;;;20.70;72.80;;;;;;4958440;28;20524;-60
2023/09/05 04:14:15;;;;;;;1.90;1.35;;;20.70;72.80;;;;;;4960190;28;20043;-59
2023/09/05 04:16:41;;;;;;;2.08;1.30;;;20.70;72.80;;;;;;4957696;28;20058;-58
2023/09/05 04:19:08;;;;;;;1.55;1.20;;;20.70;72.80;;;;;;4960461;28;20054;-58
2023/09/05 04:21:33;;;;;;;1.30;1.20;;;20.70;72.90;;;;;;4961603;28;20360;-60
2023/09/05 04:23:59;;;;;;;1.48;1.10;;;20.70;73.10;;;;;;4944525;28;20091;-58
2023/09/05 04:26:25;;;;;;;1.90;1.58;;;20.70;72.80;;;;;;4960302;28;20030;-60
2023/09/05 04:28:51;;;;;;;1.85;1.40;;;20.70;72.90;;;;;;4961415;28;20054;-60
2023/09/05 04:31:18;;;;;;;1.48;1.38;;;20.70;72.80;;;;;;4942605;28;20292;-59
2023/09/05 04:33:44;;;;;;;1.35;1.10;;;20.70;72.80;;;;;;4961812;28;20023;-61
2023/09/05 04:36:10;;;;;;;1.45;1.35;;;20.70;72.90;;;;;;4942048;28;20200;-58
2023/09/05 04:38:41;;;;;;;3.10;1.50;;;20.70;72.80;;;;;;4960516;28;20045;-58
2023/09/05 04:41:07;;;;;;;1.48;1.30;;;20.70;72.80;;;;;;4959013;28;20031;-57
2023/09/05 04:43:33;;;;;;;2.92;1.52;;;20.70;72.80;;;;;;4957161;28;20053;-59
2023/09/05 04:45:58;;;;;;;3.30;1.40;;;20.70;72.80;;;;;;4960398;28;20476;-59
2023/09/05 04:48:24;;;;;;;1.73;1.40;;;20.70;72.80;;;;;;4959828;28;20035;-59
2023/09/05 04:50:50;;;;;;;4.78;1.38;;;20.70;72.70;;;;;;4961723;28;20081;-58
2023/09/05 04:53:15;;;;;;;2.45;1.45;;;20.70;72.80;;;;;;4944255;28;20093;-60
2023/09/05 04:55:42;;;;;;;3.63;2.20;;;20.70;72.70;;;;;;4961166;28;20026;-60
2023/09/05 04:58:08;;;;;;;6.90;3.25;;;20.70;72.60;;;;;;4959826;28;20065;-61
2023/09/05 05:00:34;;;;;;;4.68;2.35;;;20.70;72.60;;;;;;4959975;28;20150;-59
2023/09/05 05:02:59;;;;;;;3.85;2.17;;;20.80;72.60;;;;;;4961733;28;20063;-58
2023/09/05 05:05:25;;;;;;;3.88;2.20;;;20.70;72.50;;;;;;4960459;28;20027;-58
2023/09/05 05:07:51;;;;;;;3.50;2.50;;;20.70;72.50;;;;;;4959732;28;20027;-57
2023/09/05 05:10:16;;;;;;;3.08;2.17;;;20.70;72.60;;;;;;4961655;28;20030;-58
2023/09/05 05:12:42;;;;;;;3.30;2.30;;;20.70;72.60;;;;;;4957187;28;20042;-58
2023/09/05 05:15:08;;;;;;;3.47;2.10;;;20.70;72.60;;;;;;4960389;28;20081;-58
2023/09/05 05:17:35;;;;;;;3.95;3.00;;;20.70;72.60;;;;;;4960009;28;20437;-57
2023/09/05 05:20:00;;;;;;;3.45;2.60;;;20.70;72.60;;;;;;4962472;28;20109;-57
2023/09/05 05:22:26;;;;;;;11.27;4.95;;;20.70;72.60;;;;;;4960346;28;20055;-59
2023/09/05 05:24:51;;;;;;;9.80;5.35;;;20.70;72.80;;;;;;4960009;28;20038;-59
2023/09/05 05:27:17;;;;;;;11.65;5.28;;;20.70;72.80;;;;;;4956695;28;20059;-60
2023/09/05 05:29:43;;;;;;;12.43;5.10;;;20.70;72.80;;;;;;4959278;28;20240;-59
2023/09/05 05:32:09;;;;;;;7.60;3.92;;;20.70;72.70;;;;;;4958374;28;20047;-57
2023/09/05 05:34:34;;;;;;;10.50;4.75;;;20.70;72.60;;;;;;4960625;28;20061;-60
2023/09/05 05:37:01;;;;;;;8.68;4.70;;;20.70;72.60;;;;;;4954501;28;20189;-60
2023/09/05 05:39:26;;;;;;;8.63;4.10;;;20.70;72.60;;;;;;4939615;28;20595;-60
2023/09/05 05:41:52;;;;;;;10.15;4.32;;;20.70;72.60;;;;;;4960524;28;20114;-57
2023/09/05 05:44:17;;;;;;;9.77;4.13;;;20.70;72.60;;;;;;4961585;28;20058;-58
2023/09/05 05:46:43;;;;;;;8.93;3.95;;;20.70;72.50;;;;;;4961101;28;20041;-57
2023/09/05 05:49:09;;;;;;;7.70;4.00;;;20.70;72.50;;;;;;4962121;28;20038;-57
2023/09/05 05:51:35;;;;;;;8.45;4.88;;;20.70;72.40;;;;;;4959959;28;20477;-58
2023/09/05 05:54:01;;;;;;;7.55;4.60;;;20.70;72.40;;;;;;4959162;28;20031;-60
2023/09/05 05:56:27;;;;;;;5.72;3.70;;;20.70;72.30;;;;;;4959561;28;20174;-59
2023/09/05 05:58:52;;;;;;;4.78;3.50;;;20.70;72.20;;;;;;4957536;28;20488;-61
2023/09/05 06:01:18;;;;;;;7.53;3.05;;;20.70;72.10;;;;;;4960034;28;20068;-61
2023/09/05 06:03:44;;;;;;;4.88;2.65;;;20.70;72.10;;;;;;4955087;28;20046;-61
2023/09/05 06:06:10;;;;;;;5.32;3.08;;;20.70;72.10;;;;;;4957263;28;20102;-58
2023/09/05 06:08:35;;;;;;;6.50;3.35;;;20.80;72.00;;;;;;4956603;28;20425;-60
2023/09/05 06:11:01;;;;;;;5.30;2.83;;;20.80;71.90;;;;;;4960607;28;20153;-61
2023/09/05 06:13:26;;;;;;;3.60;2.65;;;20.80;72.00;;;;;;4963635;28;20242;-59
2023/09/05 06:15:52;;;;;;;6.18;2.90;;;20.70;71.80;;;;;;4963518;28;20035;-60
2023/09/05 06:18:18;;;;;;;5.68;3.60;;;20.80;71.80;;;;;;4942876;28;20031;-61
2023/09/05 06:20:44;;;;;;;8.10;2.72;;;20.70;71.80;;;;;;4962739;28;20177;-61
2023/09/05 06:23:09;;;;;;;10.63;3.20;;;20.80;71.70;;;;;;4961991;28;20050;-60
2023/09/05 06:25:35;;;;;;;5.53;2.67;;;20.80;71.70;;;;;;4962716;28;20039;-59
2023/09/05 06:32:03;;;;;;;4.55;3.03;;;20.70;71.60;;;;;;4912746;28;20078;-59
2023/09/05 06:34:28;;;;;;;3.97;2.70;;;20.80;71.30;;;;;;4962116;28;20276;-57
2023/09/05 06:36:54;;;;;;;3.13;2.45;;;20.80;71.10;;;;;;4961795;28;20138;-61
2023/09/05 06:39:19;;;;;;;5.45;2.70;;;20.80;71.20;;;;;;4964311;28;20544;-61
2023/09/05 06:41:45;;;;;;;6.38;2.60;;;20.80;71.20;;;;;;4962887;28;20413;-58
2023/09/05 06:44:10;;;;;;;4.07;2.53;;;20.70;71.10;;;;;;4966158;28;20523;-60
2023/09/05 06:46:36;;;;;;;3.72;2.45;;;20.70;71.20;;;;;;4962402;28;20047;-60
2023/09/05 06:49:03;;;;;;;4.60;2.38;;;20.80;71.30;;;;;;4964925;28;20026;-61
2023/09/05 06:51:31;;;;;;;4.05;2.40;;;20.80;71.90;;;;;;4972110;28;20038;-60
2023/09/05 06:53:58;;;;;;;3.65;2.28;;;20.70;71.30;;;;;;4967831;28;20074;-60
2023/09/05 06:56:24;;;;;;;4.00;3.03;;;20.70;71.10;;;;;;4968963;28;20081;-59
2023/09/05 06:58:50;;;;;;;4.30;2.40;;;20.80;71.10;;;;;;4965884;28;20093;-60
2023/09/05 07:01:16;;;;;;;3.13;2.20;;;20.70;71.30;;;;;;4959372;28;20412;-60
2023/09/05 07:03:41;;;;;;;4.13;2.95;;;20.80;71.10;;;;;;4946711;28;20060;-60
2023/09/05 07:06:06;;;;;;;2.85;2.08;;;20.70;71.20;;;;;;4958991;28;20459;-63
2023/09/05 07:08:32;;;;;;;3.35;2.00;;;20.70;71.20;;;;;;4963808;28;20039;-59
2023/09/05 07:10:58;;;;;;;7.15;2.83;;;20.80;71.10;;;;;;4966162;28;20042;-59
2023/09/05 07:16:45;;;;;;;3.15;2.05;;;20.80;71.10;;;;;;4961208;28;20033;-60
2023/09/05 07:19:11;;;;;;;5.18;2.35;;;20.70;71.20;;;;;;4967788;28;20094;-61
2023/09/05 07:21:40;;;;;;;4.43;1.98;;;20.70;71.10;;;;;;4947809;28;20076;-68
2023/09/05 07:24:07;;;;;;;4.20;2.45;;;20.70;71.10;;;;;;4961746;28;20023;-59
2023/09/05 07:26:33;;;;;;;3.40;2.30;;;20.70;71.00;;;;;;4962950;28;20043;-60
2023/09/05 07:28:58;;;;;;;4.20;2.08;;;20.70;71.10;;;;;;4957966;28;20655;-59
2023/09/05 07:31:31;;;;;;;3.08;2.05;;;20.70;71.20;;;;;;4959461;28;20051;-57
2023/09/05 07:33:57;;;;;;;3.50;1.90;;;20.70;71.10;;;;;;4958847;28;20121;-59
2023/09/05 07:36:23;;;;;;;3.72;2.42;;;20.70;71.10;;;;;;4962698;28;20050;-57
2023/09/05 07:38:48;;;;;;;3.85;2.00;;;20.70;71.10;;;;;;4960442;28;20039;-59
2023/09/05 07:41:14;;;;;;;2.72;1.80;;;20.70;71.20;;;;;;4964902;28;21245;-60
2023/09/05 07:43:39;;;;;;;2.58;2.17;;;20.70;71.20;;;;;;4960732;28;20686;-59
2023/09/05 07:46:05;;;;;;;3.35;2.17;;;20.70;71.10;;;;;;4964570;28;20085;-58
2023/09/05 07:48:30;;;;;;;3.42;1.70;;;20.70;71.20;;;;;;4967426;28;20027;-57
2023/09/05 07:51:01;;;;;;;3.45;1.80;;;20.70;71.10;;;;;;4961002;28;20051;-60
2023/09/05 07:53:27;;;;;;;3.70;2.20;;;20.70;71.10;;;;;;4965119;28;20039;-58
2023/09/05 07:55:53;;;;;;;2.65;2.20;;;20.70;71.10;;;;;;4961495;28;20500;-58
2023/09/05 07:58:18;;;;;;;3.33;1.75;;;20.70;71.10;;;;;;4960494;28;20130;-58
2023/09/05 08:00:44;;;;;;;2.55;1.90;;;20.70;71.10;;;;;;4961842;28;20031;-60
2023/09/05 08:03:09;;;;;;;2.03;1.48;;;20.70;71.00;;;;;;4961308;28;20062;-61
2023/09/05 08:05:35;;;;;;;1.95;1.80;;;20.70;71.00;;;;;;4961910;28;20030;-57
2023/09/05 08:08:01;;;;;;;2.42;1.92;;;20.70;71.20;;;;;;4960799;28;20512;-59
2023/09/05 08:10:26;;;;;;;3.10;1.65;;;20.70;71.10;;;;;;4963544;28;20192;-60
2023/09/05 08:12:52;;;;;;;1.98;1.67;;;20.70;71.00;;;;;;4961599;28;20440;-59
2023/09/05 08:15:17;;;;;;;2.80;1.60;;;20.70;71.00;;;;;;4962399;28;20515;-59
2023/09/05 08:17:43;;;;;;;3.22;1.80;;;20.70;71.10;;;;;;4966502;28;20035;-61
2023/09/05 08:20:12;;;;;;;2.17;1.58;;;20.70;71.00;;;;;;4960807;28;20508;-61
2023/09/05 08:22:38;;;;;;;2.75;1.75;;;20.70;70.80;;;;;;4963487;28;20876;-62
2023/09/05 08:25:04;;;;;;;2.30;1.58;;;20.70;70.90;;;;;;4959427;28;20173;-59
2023/09/05 08:27:30;;;;;;;2.60;1.55;;;20.70;71.00;;;;;;4956645;28;20698;-59
2023/09/05 08:29:56;;;;;;;3.67;1.80;;;20.70;70.90;;;;;;4957217;28;20035;-58
2023/09/05 08:32:22;;;;;;;2.95;2.03;;;20.70;71.00;;;;;;4943066;28;20034;-60
2023/09/05 08:34:48;;;;;;;2.53;1.63;;;20.70;70.90;;;;;;4961369;28;20057;-58
2023/09/05 08:37:13;;;;;;;1.70;1.20;;;20.70;71.00;;;;;;4962115;28;20381;-59
2023/09/05 08:39:39;;;;;;;1.70;1.40;;;20.70;71.00;;;;;;4964499;28;20069;-59
2023/09/05 08:42:06;;;;;;;1.95;1.50;;;20.70;71.00;;;;;;4963690;28;20046;-61
2023/09/05 08:44:37;;;;;;;2.45;1.55;;;20.70;70.90;;;;;;4961588;28;20445;-58
2023/09/05 08:47:05;;;;;;;2.92;1.65;;;20.70;71.00;;;;;;4956126;28;20496;-60
2023/09/05 08:49:31;;;;;;;1.60;1.42;;;20.70;71.10;;;;;;4963340;28;20188;-59
2023/09/05 08:52:05;;;;;;;2.67;1.70;;;20.60;70.90;;;;;;4940542;28;20145;-57
2023/09/05 08:54:30;;;;;;;1.48;1.15;;;20.70;71.00;;;;;;4963617;28;20058;-58
2023/09/05 08:57:02;;;;;;;3.38;1.33;;;20.70;71.00;;;;;;4960859;28;20297;-57
2023/09/05 08:59:30;;;;;;;3.78;1.70;;;20.70;71.00;;;;;;4961240;28;20046;-60
2023/09/05 09:01:55;;;;;;;1.95;1.48;;;20.70;71.00;;;;;;4961008;28;20046;-58
2023/09/05 09:04:21;;;;;;;2.15;1.55;;;20.70;71.20;;;;;;4962316;28;20035;-60
2023/09/05 09:06:55;;;;;;;2.65;1.52;;;20.70;71.20;;;;;;4963308;28;20092;-59
2023/09/05 09:09:34;;;;;;;1.83;1.45;;;20.70;71.20;;;;;;4961328;28;20642;-58
2023/09/05 09:12:00;;;;;;;1.65;1.55;;;20.70;71.30;;;;;;4941610;28;20051;-59
2023/09/05 09:14:26;;;;;;;4.85;1.20;;;20.70;71.30;;;;;;4956376;28;20081;-60
2023/09/05 09:16:51;;;;;;;3.65;1.75;;;20.70;71.40;;;;;;4963459;28;20041;-57
2023/09/05 09:19:17;;;;;;;3.78;1.40;;;20.70;71.40;;;;;;4948090;28;20093;-58
2023/09/05 09:21:43;;;;;;;1.95;1.20;;;20.70;71.40;;;;;;4966383;28;20054;-56
2023/09/05 09:24:09;;;;;;;1.73;1.20;;;20.70;71.40;;;;;;4960651;28;20027;-58
2023/09/05 09:26:38;;;;;;;3.67;1.50;;;20.70;71.40;;;;;;4961327;28;20496;-55
2023/09/05 09:29:10;;;;;;;4.88;1.50;;;20.70;71.30;;;;;;4957319;28;20436;-55
2023/09/05 09:31:37;;;;;;;2.67;1.60;;;20.70;71.40;;;;;;4959560;28;20046;-59
2023/09/05 09:34:03;;;;;;;2.83;1.50;;;20.70;71.40;;;;;;4960573;28;20397;-58
2023/09/05 09:36:36;;;;;;;3.22;1.35;;;20.70;71.40;;;;;;4962312;28;20572;-62
2023/09/05 09:39:12;;;;;;;2.33;1.27;;;20.70;71.50;;;;;;4944621;28;20122;-57
2023/09/05 09:41:46;;;;;;;1.45;1.10;;;20.70;71.50;;;;;;4959800;28;20173;-58
2023/09/05 09:44:29;;;;;;;2.08;1.25;;;20.70;71.50;;;;;;4962295;28;20121;-52
2023/09/05 09:46:56;;;;;;;2.00;1.20;;;20.70;71.50;;;;;;4967231;28;20109;-56
2023/09/05 09:49:24;;;;;;;1.20;1.10;;;20.70;71.50;;;;;;4968296;28;20126;-57
2023/09/05 09:51:56;;;;;;;2.20;1.30;;;20.80;71.60;;;;;;4967821;28;20047;-58
2023/09/05 09:54:29;;;;;;;1.65;1.30;;;20.70;71.60;;;;;;4968844;28;20027;-57
2023/09/05 09:57:00;;;;;;;2.15;1.40;;;20.70;71.60;;;;;;4963527;28;20167;-59
2023/09/05 09:59:27;;;;;;;3.35;1.30;;;20.70;71.60;;;;;;4963882;28;20023;-59
2023/09/05 10:01:55;;;;;;;1.98;1.15;;;20.70;71.60;;;;;;4947859;28;20031;-59
2023/09/05 10:04:22;;;;;;;1.67;1.30;;;20.70;71.60;;;;;;4965979;28;20479;-60
2023/09/05 10:06:50;;;;;;;2.95;1.42;;;20.70;71.60;;;;;;4966448;28;20039;-57
2023/09/05 10:09:18;;;;;;;1.73;1.13;;;20.70;71.60;;;;;;4967976;28;20023;-61
2023/09/05 10:11:45;;;;;;;1.83;1.33;;;20.80;71.70;;;;;;4966237;28;20529;-59
2023/09/05 10:14:11;;;;;;;1.42;1.25;;;20.80;71.70;;;;;;4966000;28;20139;-61
2023/09/05 10:16:39;;;;;;;2.28;1.38;;;20.80;71.70;;;;;;4971074;28;20076;-60
2023/09/05 10:19:05;;;;;;;1.42;1.08;;;20.80;71.60;;;;;;4961627;28;20397;-57
2023/09/05 10:21:32;;;;;;;1.38;1.20;;;20.80;71.60;;;;;;4966193;28;20540;-56
2023/09/05 10:23:58;;;;;;;2.47;1.23;;;20.80;71.60;;;;;;4965650;28;20062;-59
2023/09/05 10:26:25;;;;;;;1.73;1.23;;;20.80;71.60;;;;;;4963756;28;20030;-59
2023/09/05 10:28:56;;;;;;;1.50;1.10;;;20.80;71.50;;;;;;4962371;28;20292;-59
2023/09/05 10:31:24;;;;;;;2.38;1.20;;;20.80;71.50;;;;;;4964393;28;20418;-59
2023/09/05 10:33:50;;;;;;;1.85;1.23;;;20.80;71.50;;;;;;4962640;28;20502;-58
2023/09/05 10:36:41;;;;;;;1.65;1.30;;;20.80;71.40;;;;;;4966476;28;20170;-53
2023/09/05 10:39:24;;;;;;;2.85;1.15;;;20.80;71.40;;;;;;4963902;28;20034;-56
2023/09/05 10:41:51;;;;;;;4.43;1.92;;;20.70;71.30;;;;;;4961059;28;20448;-59
2023/09/05 10:44:17;;;;;;;2.10;1.45;;;20.80;71.40;;;;;;4967566;28;20135;-60
2023/09/05 10:46:42;;;;;;;1.60;1.27;;;20.70;71.30;;;;;;4966028;28;20110;-61
2023/09/05 10:49:15;;;;;;;2.15;1.30;;;20.70;71.20;;;;;;4965051;28;20023;-59
2023/09/05 10:52:15;;;;;;;1.40;1.30;;;20.80;71.30;;;;;;4972009;23;20033;-60
2023/09/05 10:54:41;;;;;;;1.60;1.23;;;20.80;71.30;;;;;;4982294;28;20022;-58
2023/09/05 10:57:36;;;;;;;3.85;1.40;;;20.80;71.20;;;;;;4981150;28;20452;-61
2023/09/05 11:00:15;;;;;;;1.83;1.40;;;20.70;71.10;;;;;;4978797;28;20648;-55
2023/09/05 11:02:46;;;;;;;1.42;1.33;;;20.80;71.10;;;;;;4982585;28;20054;-58
2023/09/05 11:05:18;;;;;;;1.58;1.30;;;20.80;71.20;;;;;;4983473;28;20023;-57
2023/09/05 11:07:48;;;;;;;1.58;1.30;;;20.80;71.20;;;;;;4981369;28;20031;-57
2023/09/05 11:10:29;;;;;;;1.13;1.02;;;20.80;71.20;;;;;;4983650;28;20488;-58
2023/09/05 11:13:06;;;;;;;2.05;1.52;;;20.80;71.10;;;;;;4980180;28;20035;-60
2023/09/05 11:15:35;;;;;;;1.27;1.17;;;20.80;71.10;;;;;;4981650;28;20031;-57
2023/09/05 11:18:04;;;;;;;2.55;1.40;;;20.80;71.10;;;;;;4979024;28;20118;-60
2023/09/05 11:20:46;;;;;;;1.80;1.25;;;20.80;71.20;;;;;;4983077;28;20495;-59
2023/09/05 11:23:17;;;;;;;1.75;1.20;;;20.80;71.10;;;;;;4981270;28;20037;-58
2023/09/05 11:25:43;;;;;;;2.92;1.40;;;20.80;71.10;;;;;;4980734;28;20035;-55
2023/09/05 11:28:10;;;;;;;1.65;1.38;;;20.80;71.10;;;;;;4981221;28;20030;-56
2023/09/05 11:30:37;;;;;;;1.48;1.27;;;20.80;71.10;;;;;;4982377;28;20034;-59
2023/09/05 11:33:07;;;;;;;2.25;1.35;;;20.80;71.10;;;;;;4981342;28;20034;-55
2023/09/05 11:38:54;;;;;;;1.85;1.23;;;20.80;71.10;;;;;;4971303;28;20491;-54
2023/09/05 11:41:20;;;;;;;1.77;1.40;;;20.80;71.10;;;;;;4979249;28;20031;-60
2023/09/05 11:43:52;;;;;;;4.50;1.63;;;20.80;71.10;;;;;;4983244;28;20030;-54
2023/09/05 11:46:19;;;;;;;2.20;1.48;;;20.80;71.10;;;;;;4980209;28;20031;-60
2023/09/05 11:48:47;;;;;;;1.60;1.50;;;20.80;71.10;;;;;;4981353;28;20034;-59
2023/09/05 11:51:14;;;;;;;1.55;1.45;;;20.80;71.10;;;;;;4981164;28;20098;-60
2023/09/05 11:53:44;;;;;;;2.35;1.50;;;20.80;71.10;;;;;;4981719;28;20042;-59
2023/09/05 11:56:11;;;;;;;1.48;1.25;;;20.80;71.10;;;;;;4977937;28;20582;-56
2023/09/05 11:58:37;;;;;;;1.33;1.20;;;20.80;71.10;;;;;;4978111;28;20054;-56
2023/09/05 12:01:02;;;;;;;1.85;1.30;;;20.80;71.10;;;;;;4978735;28;20030;-60
2023/09/05 12:03:29;;;;;;;2.42;1.70;;;20.80;71.00;;;;;;4973763;28;20022;-57
2023/09/05 12:05:55;;;;;;;1.77;1.33;;;20.80;71.10;;;;;;4981784;28;20042;-59
2023/09/05 12:08:21;;;;;;;1.60;1.27;;;20.80;71.00;;;;;;4972149;28;20026;-59
2023/09/05 12:10:51;;;;;;;1.88;1.20;;;20.80;71.00;;;;;;4981297;28;20030;-61
2023/09/05 12:13:34;;;;;;;1.70;1.23;;;20.80;71.00;;;;;;4979241;28;20031;-57
2023/09/05 12:15:59;;;;;;;1.50;1.40;;;20.80;71.00;;;;;;4980506;28;20058;-61
2023/09/05 12:18:25;;;;;;;4.40;1.65;;;20.80;71.00;;;;;;4961561;28;20484;-60
2023/09/05 12:21:00;;;;;;;2.03;1.42;;;20.80;71.00;;;;;;4980330;28;20053;-61
2023/09/05 12:23:26;;;;;;;1.75;1.50;;;20.80;71.10;;;;;;4975644;28;20085;-58
2023/09/05 12:25:54;;;;;;;1.98;1.45;;;20.80;71.00;;;;;;4980293;28;20078;-54
2023/09/05 12:28:22;;;;;;;1.88;1.42;;;20.90;71.10;;;;;;4973679;28;20029;-58
2023/09/05 12:30:49;;;;;;;2.53;1.65;;;20.80;71.00;;;;;;4972256;28;20033;-56
2023/09/05 12:33:15;;;;;;;1.90;1.40;;;20.90;71.10;;;;;;4972855;28;20029;-61
2023/09/05 12:35:42;;;;;;;3.05;2.03;;;20.80;71.00;;;;;;4982935;28;20022;-58
2023/09/05 12:38:09;;;;;;;2.40;1.33;;;20.90;71.00;;;;;;4978387;28;20488;-58
2023/09/05 12:40:35;;;;;;;2.33;1.58;;;20.90;71.00;;;;;;4978668;28;20144;-55
2023/09/05 12:43:02;;;;;;;1.83;1.33;;;20.80;71.00;;;;;;4978862;28;20479;-60
2023/09/05 12:45:27;;;;;;;1.70;1.60;;;20.80;71.00;;;;;;4978857;28;20033;-56
2023/09/05 12:47:53;;;;;;;2.22;1.65;;;20.90;71.10;;;;;;4978998;28;20022;-61
2023/09/05 12:50:29;;;;;;;1.38;1.20;;;20.80;71.00;;;;;;4976658;28;20554;-56
2023/09/05 12:53:01;;;;;;;1.90;1.33;;;20.80;71.10;;;;;;4977620;28;20117;-60
2023/09/05 12:55:27;;;;;;;1.50;1.30;;;20.90;71.10;;;;;;4976889;28;20069;-58
2023/09/05 12:57:56;;;;;;;1.50;1.40;;;20.90;71.10;;;;;;4975447;28;20037;-55